createdAt,value
2022-08-08T00:00:55.923Z,86.47
2022-08-08T00:01:08.044Z,85.45
2022-08-08T00:02:31.036Z,85.86
2022-08-08T00:03:20.088Z,85.66
2022-08-08T00:04:05.137Z,86.37
2022-08-08T00:05:09.459Z,85.66
2022-08-08T00:06:05.025Z,85.86
2022-08-08T00:07:12.534Z,85.86
2022-08-08T00:08:05.020Z,85.92
2022-08-08T00:09:07.936Z,85.55
2022-08-08T00:10:04.940Z,85.31
2022-08-08T00:11:12.850Z,85.55
2022-08-08T00:12:10.053Z,85.25
2022-08-08T00:13:04.804Z,85.25
2022-08-08T00:14:15.751Z,85.45
2022-08-08T00:15:05.206Z,85.96
2022-08-08T00:16:04.710Z,86.06
2022-08-08T00:17:04.677Z,85.86
2022-08-08T00:18:04.856Z,86.30
2022-08-08T00:19:04.620Z,86.51
2022-08-08T00:20:04.645Z,86.71
2022-08-08T00:21:05.994Z,86.21
2022-08-08T00:22:04.523Z,86.71
2022-08-08T00:23:06.065Z,86.00
2022-08-08T00:24:04.456Z,86.61
2022-08-08T00:25:04.481Z,86.30
2022-08-08T00:26:04.412Z,86.30
2022-08-08T00:27:05.817Z,86.71
2022-08-08T00:28:04.338Z,86.30
2022-08-08T00:29:08.153Z,86.30
2022-08-08T00:30:04.358Z,86.55
2022-08-08T00:32:19.910Z,86.86
2022-08-08T00:32:20.243Z,86.76
2022-08-08T00:33:04.207Z,86.96
2022-08-08T00:34:18.140Z,86.65
2022-08-08T00:35:04.472Z,86.76
2022-08-08T00:36:04.186Z,86.86
2022-08-08T00:37:16.292Z,86.45
2022-08-08T00:38:04.044Z,87.10
2022-08-08T00:39:03.986Z,87.00
2022-08-08T00:41:11.393Z,86.90
2022-08-08T00:41:12.737Z,87.51
2022-08-08T00:42:12.659Z,87.82
2022-08-08T00:43:05.995Z,87.41
2022-08-08T00:44:03.897Z,87.71
2022-08-08T00:45:03.801Z,87.71
2022-08-08T00:46:03.766Z,88.53
2022-08-08T00:47:04.531Z,87.96
2022-08-08T00:48:06.355Z,88.02
2022-08-08T00:49:03.672Z,88.02
2022-08-08T00:50:03.642Z,87.61
2022-08-08T00:51:03.609Z,87.76
2022-08-08T00:52:03.580Z,87.76
2022-08-08T00:53:03.597Z,88.02
2022-08-08T00:54:13.589Z,88.12
2022-08-08T00:55:03.486Z,88.67
2022-08-08T00:56:03.453Z,88.67
2022-08-08T00:57:03.508Z,88.88
2022-08-08T00:58:03.446Z,89.08
2022-08-08T00:59:03.356Z,88.98
2022-08-08T01:00:04.888Z,88.67
2022-08-08T01:01:03.356Z,88.78
2022-08-08T01:02:03.309Z,88.57
2022-08-08T01:04:01.764Z,88.57
2022-08-08T01:04:04.841Z,88.88
2022-08-08T01:05:03.869Z,88.57
2022-08-08T01:06:03.137Z,89.02
2022-08-08T01:07:05.882Z,89.02
2022-08-08T01:08:03.078Z,89.23
2022-08-08T01:09:35.941Z,89.39
2022-08-08T01:10:06.001Z,89.39
2022-08-08T01:11:02.977Z,89.43
2022-08-08T01:12:03.028Z,89.28
2022-08-08T01:13:02.913Z,89.28
2022-08-08T01:14:02.955Z,89.49
2022-08-08T01:15:02.909Z,89.69
2022-08-08T01:16:02.817Z,89.94
2022-08-08T01:17:02.827Z,89.94
2022-08-08T01:18:03.538Z,89.73
2022-08-08T01:19:13.779Z,89.94
2022-08-08T01:20:03.870Z,89.73
2022-08-08T01:21:02.662Z,90.35
2022-08-08T01:22:12.195Z,90.35
2022-08-08T01:23:03.070Z,90.04
2022-08-08T01:24:13.471Z,89.94
2022-08-08T01:25:02.534Z,90.20
2022-08-08T01:26:05.981Z,90.04
2022-08-08T01:27:02.471Z,90.14
2022-08-08T01:28:02.521Z,90.25
2022-08-08T01:29:02.412Z,90.25
2022-08-08T01:30:03.531Z,90.35
2022-08-08T01:31:02.370Z,89.84
2022-08-08T01:32:13.701Z,90.35
2022-08-08T01:33:02.277Z,90.14
2022-08-08T01:34:02.255Z,90.35
2022-08-08T01:35:02.216Z,90.75
2022-08-08T01:36:02.267Z,90.35
2022-08-08T01:37:02.224Z,90.86
2022-08-08T01:38:02.172Z,90.25
2022-08-08T01:39:02.123Z,90.35
2022-08-08T01:40:02.600Z,90.25
2022-08-08T01:41:02.027Z,90.66
2022-08-08T01:42:01.996Z,90.86
2022-08-08T01:43:02.015Z,90.75
2022-08-08T01:44:01.935Z,90.66
2022-08-08T01:45:01.902Z,90.86
2022-08-08T01:46:01.871Z,90.96
2022-08-08T01:47:06.033Z,90.55
2022-08-08T01:48:23.261Z,90.86
2022-08-08T01:49:01.768Z,90.75
2022-08-08T01:50:01.740Z,90.66
2022-08-08T01:51:01.707Z,90.86
2022-08-08T01:52:43.871Z,90.86
2022-08-08T01:55:16.719Z,91.52
2022-08-08T01:55:17.045Z,90.90
2022-08-08T01:55:44.918Z,91.11
2022-08-08T01:56:29.928Z,91.11
2022-08-08T01:57:01.516Z,91.20
2022-08-08T01:58:11.261Z,91.31
2022-08-08T01:59:02.800Z,91.20
2022-08-08T02:00:03.527Z,91.31
2022-08-08T02:01:01.420Z,91.15
2022-08-08T02:02:05.018Z,91.05
2022-08-08T02:03:01.325Z,91.41
2022-08-08T02:04:01.783Z,91.35
2022-08-08T02:05:01.308Z,91.61
2022-08-08T02:06:01.226Z,91.66
2022-08-08T02:07:01.198Z,91.66
2022-08-08T02:08:01.164Z,91.56
2022-08-08T02:09:01.131Z,91.35
2022-08-08T02:10:11.830Z,91.46
2022-08-08T02:11:01.125Z,91.76
2022-08-08T02:12:01.042Z,91.66
2022-08-08T02:13:01.199Z,91.25
2022-08-08T02:14:00.980Z,92.37
2022-08-08T02:15:01.011Z,91.56
2022-08-08T02:16:00.958Z,91.86
2022-08-08T02:17:00.880Z,91.86
2022-08-08T02:18:00.844Z,91.96
2022-08-08T02:19:00.811Z,92.17
2022-08-08T02:20:09.792Z,91.96
2022-08-08T02:21:08.512Z,91.76
2022-08-08T02:22:00.724Z,92.42
2022-08-08T02:23:00.684Z,91.91
2022-08-08T02:24:00.652Z,92.01
2022-08-08T02:25:00.629Z,92.11
2022-08-08T02:26:00.866Z,91.91
2022-08-08T02:27:01.003Z,92.01
2022-08-08T02:28:00.966Z,92.01
2022-08-08T02:29:00.509Z,92.32
2022-08-08T02:30:00.463Z,92.36
2022-08-08T02:31:02.277Z,92.62
2022-08-08T02:32:04.659Z,92.87
2022-08-08T02:33:00.373Z,92.97
2022-08-08T02:34:08.386Z,92.66
2022-08-08T02:35:08.335Z,92.77
2022-08-08T02:36:04.626Z,92.97
2022-08-08T02:37:00.310Z,92.97
2022-08-08T02:38:00.266Z,93.18
2022-08-08T02:39:01.091Z,93.48
2022-08-08T02:40:00.678Z,93.48
2022-08-08T02:41:00.110Z,93.79
2022-08-08T02:42:05.415Z,93.69
2022-08-08T02:44:34.756Z,93.18
2022-08-08T02:44:38.061Z,93.73
2022-08-08T02:44:59.979Z,93.28
2022-08-08T02:45:59.948Z,93.48
2022-08-08T02:46:59.914Z,93.84
2022-08-08T02:47:59.933Z,93.63
2022-08-08T02:48:59.924Z,93.59
2022-08-08T02:49:59.832Z,94.24
2022-08-08T02:50:59.784Z,94.85
2022-08-08T02:52:03.174Z,94.81
2022-08-08T02:52:59.721Z,94.71
2022-08-08T02:53:59.709Z,94.60
2022-08-08T02:54:59.711Z,94.60
2022-08-08T02:56:00.118Z,95.02
2022-08-08T02:56:59.591Z,95.22
2022-08-08T02:57:59.560Z,95.22
2022-08-08T02:58:59.528Z,94.10
2022-08-08T03:00:27.090Z,94.71
2022-08-08T03:00:59.598Z,94.60
2022-08-08T03:01:59.491Z,95.02
2022-08-08T03:02:59.396Z,95.02
2022-08-08T03:05:03.590Z,94.30
2022-08-08T03:05:03.996Z,94.51
2022-08-08T03:05:59.358Z,94.30
2022-08-08T03:06:59.273Z,94.40
2022-08-08T03:08:05.961Z,94.60
2022-08-08T03:08:59.208Z,94.30
2022-08-08T03:09:59.170Z,94.75
2022-08-08T03:10:59.203Z,95.06
2022-08-08T03:12:02.769Z,95.06
2022-08-08T03:13:02.668Z,94.65
2022-08-08T03:15:56.685Z,94.75
2022-08-08T03:15:58.741Z,94.75
2022-08-08T03:16:05.292Z,94.75
2022-08-08T03:16:59.015Z,94.65
2022-08-08T03:18:04.839Z,95.06
2022-08-08T03:18:58.893Z,94.65
2022-08-08T03:19:58.851Z,94.85
2022-08-08T03:20:58.872Z,94.65
2022-08-08T03:22:00.006Z,94.75
2022-08-08T03:23:00.406Z,95.26
2022-08-08T03:24:01.872Z,95.63
2022-08-08T03:24:58.724Z,95.57
2022-08-08T03:25:58.662Z,95.37
2022-08-08T03:26:58.625Z,95.47
2022-08-08T03:27:58.596Z,95.17
2022-08-08T03:28:58.676Z,95.57
2022-08-08T03:29:58.529Z,95.78
2022-08-08T03:31:22.146Z,95.57
2022-08-08T03:32:06.563Z,95.57
2022-08-08T03:33:07.477Z,96.34
2022-08-08T03:34:02.030Z,96.39
2022-08-08T03:34:58.416Z,96.39
2022-08-08T03:35:58.335Z,97.06
2022-08-08T03:36:58.299Z,97.06
2022-08-08T03:38:54.213Z,96.96
2022-08-08T03:39:14.882Z,96.34
2022-08-08T03:40:00.537Z,96.14
2022-08-08T03:40:58.325Z,95.84
2022-08-08T03:42:27.725Z,96.04
2022-08-08T03:42:58.110Z,95.94
2022-08-08T03:43:59.603Z,95.53
2022-08-08T03:44:58.043Z,95.32
2022-08-08T03:46:06.494Z,95.32
2022-08-08T03:46:57.979Z,95.43
2022-08-08T03:47:57.943Z,95.94
2022-08-08T03:49:38.121Z,96.25
2022-08-08T03:50:01.913Z,96.25
2022-08-08T03:50:58.147Z,95.94
2022-08-08T03:51:57.940Z,95.94
2022-08-08T03:52:58.478Z,95.53
2022-08-08T03:53:57.753Z,95.94
2022-08-08T03:55:10.928Z,95.43
2022-08-08T03:56:04.423Z,95.43
2022-08-08T03:56:57.705Z,96.45
2022-08-08T03:58:33.403Z,96.04
2022-08-08T03:58:57.588Z,95.94
2022-08-08T03:59:57.559Z,95.73
2022-08-08T04:01:02.746Z,95.73
2022-08-08T04:02:12.813Z,96.04
2022-08-08T04:02:57.780Z,96.25
2022-08-08T04:04:01.690Z,95.84
2022-08-08T04:04:57.403Z,96.45
2022-08-08T04:05:57.366Z,95.94
2022-08-08T04:06:57.333Z,95.73
2022-08-08T04:07:58.303Z,95.63
2022-08-08T04:08:57.264Z,95.43
2022-08-08T04:10:00.524Z,95.28
2022-08-08T04:10:59.668Z,95.32
2022-08-08T04:11:58.643Z,95.38
2022-08-08T04:12:57.191Z,95.63
2022-08-08T04:14:03.439Z,95.48
2022-08-08T04:14:57.078Z,95.53
2022-08-08T04:16:03.765Z,95.38
2022-08-08T04:16:57.585Z,95.28
2022-08-08T04:17:58.804Z,95.48
2022-08-08T04:18:56.944Z,95.34
2022-08-08T04:19:56.916Z,95.23
2022-08-08T04:20:56.879Z,95.44
2022-08-08T04:21:56.850Z,95.09
2022-08-08T04:22:57.245Z,94.58
2022-08-08T04:24:11.560Z,94.33
2022-08-08T04:24:56.752Z,94.64
2022-08-08T04:25:56.724Z,94.23
2022-08-08T04:26:57.773Z,94.43
2022-08-08T04:28:02.800Z,94.18
2022-08-08T04:28:56.690Z,93.47
2022-08-08T04:30:01.131Z,93.12
2022-08-08T04:30:57.659Z,92.61
2022-08-08T04:31:58.533Z,92.61
2022-08-08T04:32:56.501Z,92.46
2022-08-08T04:33:56.475Z,92.67
2022-08-08T04:34:58.394Z,92.46
2022-08-08T04:35:56.403Z,92.61
2022-08-08T04:36:56.368Z,92.10
2022-08-08T04:37:56.344Z,91.59
2022-08-08T04:39:21.378Z,91.79
2022-08-08T04:40:05.110Z,91.69
2022-08-08T04:40:56.285Z,92.20
2022-08-08T04:41:56.215Z,91.39
2022-08-08T04:42:57.973Z,91.59
2022-08-08T04:43:57.211Z,92.20
2022-08-08T04:44:56.469Z,91.44
2022-08-08T04:45:56.091Z,92.50
2022-08-08T04:46:58.089Z,91.24
2022-08-08T04:47:56.021Z,91.44
2022-08-08T04:48:55.993Z,91.55
2022-08-08T04:50:01.420Z,91.55
2022-08-08T04:50:56.068Z,91.14
2022-08-08T04:51:57.562Z,91.85
2022-08-08T04:52:58.727Z,90.99
2022-08-08T04:54:39.510Z,91.09
2022-08-08T04:54:55.830Z,90.99
2022-08-08T04:55:56.766Z,91.16
2022-08-08T04:56:55.834Z,91.05
2022-08-08T04:57:55.703Z,90.95
2022-08-08T04:58:55.677Z,91.05
2022-08-08T04:59:55.643Z,90.44
2022-08-08T05:00:55.613Z,90.75
2022-08-08T05:02:00.692Z,89.94
2022-08-08T05:02:55.545Z,89.59
2022-08-08T05:04:10.628Z,89.69
2022-08-08T05:04:55.486Z,89.59
2022-08-08T05:05:55.455Z,89.85
2022-08-08T05:06:56.487Z,89.85
2022-08-08T05:07:56.568Z,90.05
2022-08-08T05:08:55.785Z,89.00
2022-08-08T05:09:55.331Z,88.75
2022-08-08T05:10:55.303Z,87.69
2022-08-08T05:11:57.304Z,87.04
2022-08-08T05:13:01.642Z,86.53
2022-08-08T05:14:00.782Z,86.53
2022-08-08T05:14:55.178Z,86.57
2022-08-08T05:16:54.855Z,86.57
2022-08-08T05:17:01.236Z,87.18
2022-08-08T05:17:55.209Z,87.49
2022-08-08T05:18:55.049Z,87.69
2022-08-08T05:20:11.573Z,87.49
2022-08-08T05:20:54.987Z,87.59
2022-08-08T05:21:58.025Z,87.55
2022-08-08T05:22:55.409Z,87.24
2022-08-08T05:24:04.437Z,87.14
2022-08-08T05:24:54.862Z,86.69
2022-08-08T05:26:00.237Z,86.59
2022-08-08T05:26:54.800Z,86.69
2022-08-08T05:27:55.119Z,86.59
2022-08-08T05:28:57.476Z,86.59
2022-08-08T05:29:54.897Z,86.80
2022-08-08T05:30:54.675Z,86.49
2022-08-08T05:32:03.924Z,86.96
2022-08-08T05:32:54.616Z,86.55
2022-08-08T05:33:54.756Z,86.51
2022-08-08T05:34:54.631Z,86.45
2022-08-08T05:35:54.530Z,86.10
2022-08-08T05:36:56.442Z,86.21
2022-08-08T05:37:54.798Z,86.10
2022-08-08T05:38:54.436Z,86.00
2022-08-08T05:39:54.563Z,86.00
2022-08-08T05:40:57.839Z,86.16
2022-08-08T05:41:55.168Z,86.16
2022-08-08T05:42:54.309Z,85.86
2022-08-08T05:44:03.981Z,85.66
2022-08-08T05:44:54.322Z,85.86
2022-08-08T05:45:55.122Z,85.66
2022-08-08T05:46:54.193Z,85.66
2022-08-08T05:48:00.249Z,85.42
2022-08-08T05:48:54.357Z,85.31
2022-08-08T05:49:56.169Z,85.01
2022-08-08T05:50:58.751Z,84.97
2022-08-08T05:51:54.120Z,84.47
2022-08-08T05:52:54.034Z,83.76
2022-08-08T05:54:27.477Z,84.06
2022-08-08T05:55:02.047Z,84.16
2022-08-08T05:56:11.551Z,83.41
2022-08-08T05:56:53.892Z,84.33
2022-08-08T05:58:05.761Z,84.22
2022-08-08T05:58:58.281Z,84.12
2022-08-08T06:00:16.564Z,84.33
2022-08-08T06:00:58.457Z,83.92
2022-08-08T06:01:57.072Z,84.12
2022-08-08T06:02:53.806Z,83.88
2022-08-08T06:03:55.736Z,83.88
2022-08-08T06:04:54.524Z,83.68
2022-08-08T06:05:53.623Z,83.54
2022-08-08T06:06:53.731Z,83.68
2022-08-08T06:08:02.188Z,83.44
2022-08-08T06:08:55.327Z,83.13
2022-08-08T06:09:59.566Z,83.23
2022-08-08T06:10:53.501Z,83.23
2022-08-08T06:11:53.505Z,82.02
2022-08-08T06:12:53.409Z,81.62
2022-08-08T06:13:53.384Z,81.68
2022-08-08T06:14:53.356Z,81.57
2022-08-08T06:15:53.939Z,81.68
2022-08-08T06:16:53.291Z,80.87
2022-08-08T06:18:20.088Z,80.77
2022-08-08T06:18:53.232Z,80.43
2022-08-08T06:19:53.219Z,80.32
2022-08-08T06:20:57.312Z,79.62
2022-08-08T06:21:57.649Z,79.82
2022-08-08T06:22:53.128Z,79.41
2022-08-08T06:24:02.594Z,78.77
2022-08-08T06:24:53.355Z,78.67
2022-08-08T06:26:42.873Z,78.06
2022-08-08T06:26:52.999Z,77.66
2022-08-08T06:27:52.967Z,77.73
2022-08-08T06:28:54.226Z,77.42
2022-08-08T06:30:00.508Z,77.02
2022-08-08T06:30:52.881Z,76.68
2022-08-08T06:32:10.560Z,76.58
2022-08-08T06:32:52.895Z,76.14
2022-08-08T06:34:27.097Z,75.54
2022-08-08T06:35:12.061Z,75.54
2022-08-08T06:36:04.458Z,75.34
2022-08-08T06:36:53.944Z,75.34
2022-08-08T06:37:53.699Z,75.34
2022-08-08T06:38:52.648Z,75.63
2022-08-08T06:39:56.180Z,75.20
2022-08-08T06:40:54.077Z,74.79
2022-08-08T06:41:52.565Z,74.90
2022-08-08T06:42:52.539Z,74.79
2022-08-08T06:43:56.933Z,74.79
2022-08-08T06:44:52.507Z,74.15
2022-08-08T06:45:52.494Z,74.19
2022-08-08T06:46:52.426Z,74.46
2022-08-08T06:48:01.274Z,73.72
2022-08-08T06:48:52.359Z,73.92
2022-08-08T06:49:56.677Z,73.72
2022-08-08T06:50:53.241Z,73.41
2022-08-08T06:51:57.702Z,71.67
2022-08-08T06:52:52.251Z,71.47
2022-08-08T06:53:56.140Z,70.63
2022-08-08T06:54:52.230Z,70.83
2022-08-08T06:56:02.015Z,71.73
2022-08-08T06:56:52.900Z,71.53
2022-08-08T06:57:56.177Z,71.60
2022-08-08T06:58:52.074Z,71.20
2022-08-08T07:00:10.255Z,71.30
2022-08-08T07:00:52.016Z,71.56
2022-08-08T07:02:16.684Z,70.76
2022-08-08T07:02:52.587Z,71.26
2022-08-08T07:04:40.394Z,70.26
2022-08-08T07:04:52.497Z,70.26
2022-08-08T07:06:02.317Z,69.52
2022-08-08T07:06:51.888Z,69.52
2022-08-08T07:07:51.869Z,69.32
2022-08-08T07:08:51.790Z,69.42
2022-08-08T07:09:59.729Z,68.72
2022-08-08T07:10:51.734Z,69.09
2022-08-08T07:11:52.004Z,69.49
2022-08-08T07:12:51.734Z,68.29
2022-08-08T07:14:00.505Z,69.35
2022-08-08T07:14:51.736Z,68.99
2022-08-08T07:16:05.048Z,67.85
2022-08-08T07:16:53.878Z,67.25
2022-08-08T07:18:02.129Z,67.25
2022-08-08T07:18:51.519Z,66.75
2022-08-08T07:19:51.479Z,66.24
2022-08-08T07:20:51.682Z,66.01
2022-08-08T07:21:51.427Z,64.31
2022-08-08T07:22:51.398Z,63.10
2022-08-08T07:24:02.168Z,63.31
2022-08-08T07:24:51.345Z,62.90
2022-08-08T07:25:54.529Z,62.67
2022-08-08T07:26:53.056Z,62.27
2022-08-08T07:28:02.892Z,62.07
2022-08-08T07:28:51.287Z,61.34
2022-08-08T07:30:01.709Z,61.54
2022-08-08T07:30:51.183Z,61.31
2022-08-08T07:31:51.156Z,59.00
2022-08-08T07:32:51.123Z,58.70
2022-08-08T07:33:53.475Z,59.18
2022-08-08T07:35:01.046Z,59.48
2022-08-08T07:35:54.328Z,58.78
2022-08-08T07:36:51.020Z,59.18
2022-08-08T07:38:04.618Z,59.18
2022-08-08T07:38:53.313Z,59.08
2022-08-08T07:39:57.857Z,59.18
2022-08-08T07:40:50.910Z,60.18
2022-08-08T07:42:04.562Z,59.68
2022-08-08T07:42:50.857Z,57.28
2022-08-08T07:43:51.203Z,56.85
2022-08-08T07:44:51.277Z,54.97
2022-08-08T07:45:51.562Z,56.85
2022-08-08T07:46:50.750Z,56.05
2022-08-08T07:47:51.621Z,56.95
2022-08-08T07:48:50.685Z,57.75
2022-08-08T07:49:50.715Z,57.52
2022-08-08T07:50:50.731Z,55.15
2022-08-08T07:51:53.555Z,55.44
2022-08-08T07:52:50.585Z,55.35
2022-08-08T07:54:01.061Z,55.82
2022-08-08T07:54:50.530Z,55.52
2022-08-08T07:55:50.500Z,54.52
2022-08-08T07:56:50.690Z,54.92
2022-08-08T07:57:50.443Z,55.42
2022-08-08T07:58:50.417Z,55.59
2022-08-08T07:59:50.459Z,55.29
2022-08-08T08:00:50.411Z,55.49
2022-08-08T08:02:36.489Z,55.59
2022-08-08T08:02:50.370Z,55.40
2022-08-08T08:03:50.283Z,54.99
2022-08-08T08:04:52.069Z,56.20
2022-08-08T08:05:50.779Z,55.89
2022-08-08T08:06:50.205Z,55.29
2022-08-08T08:07:53.112Z,55.59
2022-08-08T08:08:52.472Z,56.16
2022-08-08T08:09:50.125Z,55.07
2022-08-08T08:10:50.127Z,55.47
2022-08-08T08:11:51.883Z,55.17
2022-08-08T08:12:50.377Z,55.66
2022-08-08T08:14:09.827Z,55.36
2022-08-08T08:14:50.012Z,55.24
2022-08-08T08:15:49.986Z,55.54
2022-08-08T08:16:50.347Z,55.34
2022-08-08T08:17:55.823Z,55.64
2022-08-08T08:18:52.217Z,54.54
2022-08-08T08:19:50.629Z,54.74
2022-08-08T08:20:49.835Z,54.82
2022-08-08T08:21:57.610Z,55.24
2022-08-08T08:22:49.781Z,53.22
2022-08-08T08:23:51.182Z,53.52
2022-08-08T08:24:49.848Z,52.32
2022-08-08T08:25:52.015Z,52.49
2022-08-08T08:26:52.819Z,50.99
2022-08-08T08:27:49.646Z,52.69
2022-08-08T08:28:49.622Z,53.59
2022-08-08T08:29:50.994Z,53.49
2022-08-08T08:30:49.615Z,53.27
2022-08-08T08:31:57.644Z,50.40
2022-08-08T08:32:52.037Z,52.39
2022-08-08T08:33:50.653Z,52.89
2022-08-08T08:34:49.468Z,51.40
2022-08-08T08:36:19.723Z,51.77
2022-08-08T08:36:51.497Z,52.07
2022-08-08T08:38:13.622Z,52.57
2022-08-08T08:38:50.197Z,53.06
2022-08-08T08:40:01.954Z,52.76
2022-08-08T08:40:51.564Z,50.47
2022-08-08T08:41:49.498Z,50.17
2022-08-08T08:42:49.253Z,50.45
2022-08-08T08:43:49.233Z,50.37
2022-08-08T08:44:49.208Z,50.85
2022-08-08T08:45:50.055Z,50.85
2022-08-08T08:46:50.962Z,51.05
2022-08-08T08:47:49.173Z,49.95
2022-08-08T08:48:49.882Z,50.35
2022-08-08T08:49:49.077Z,50.15
2022-08-08T08:50:49.047Z,50.43
2022-08-08T08:51:50.947Z,50.02
2022-08-08T08:52:59.459Z,49.83
2022-08-08T08:53:56.474Z,48.33
2022-08-08T08:54:48.960Z,49.03
2022-08-08T08:55:48.924Z,48.73
2022-08-08T08:56:48.894Z,48.83
2022-08-08T08:57:48.870Z,48.71
2022-08-08T08:58:50.555Z,48.13
2022-08-08T09:00:01.723Z,48.41
2022-08-08T09:01:09.087Z,47.21
2022-08-08T09:01:48.820Z,47.61
2022-08-08T09:02:48.743Z,46.81
2022-08-08T09:03:50.856Z,46.51
2022-08-08T09:04:50.219Z,46.72
2022-08-08T09:05:54.463Z,46.51
2022-08-08T09:06:50.482Z,46.20
2022-08-08T09:07:52.374Z,46.31
2022-08-08T09:08:51.958Z,46.42
2022-08-08T09:09:55.210Z,46.59
2022-08-08T09:10:48.540Z,45.57
2022-08-08T09:12:02.013Z,45.08
2022-08-08T09:12:48.497Z,44.90
2022-08-08T09:13:48.501Z,45.57
2022-08-08T09:14:48.713Z,46.09
2022-08-08T09:15:48.434Z,45.79
2022-08-08T09:16:49.326Z,46.39
2022-08-08T09:17:55.535Z,46.17
2022-08-08T09:18:48.340Z,45.87
2022-08-08T09:21:58.408Z,46.09
2022-08-08T09:21:59.390Z,46.17
2022-08-08T09:22:01.964Z,46.37
2022-08-08T09:22:48.237Z,44.80
2022-08-08T09:23:48.217Z,44.78
2022-08-08T09:24:48.232Z,45.28
2022-08-08T09:25:54.901Z,44.28
2022-08-08T09:26:49.838Z,45.08
2022-08-08T09:27:57.482Z,44.68
2022-08-08T09:28:48.088Z,44.98
2022-08-08T09:29:52.697Z,44.98
2022-08-08T09:30:48.172Z,45.55
2022-08-08T09:31:56.023Z,46.05
2022-08-08T09:32:50.462Z,46.84
2022-08-08T09:34:15.413Z,46.75
2022-08-08T09:34:50.510Z,48.04
2022-08-08T09:35:50.187Z,46.84
2022-08-08T09:37:28.618Z,45.95
2022-08-08T09:38:01.796Z,46.15
2022-08-08T09:38:52.544Z,46.15
2022-08-08T09:39:47.913Z,46.83
2022-08-08T09:40:53.969Z,46.95
2022-08-08T09:42:13.960Z,45.85
2022-08-08T09:42:51.815Z,46.45
2022-08-08T09:44:05.087Z,46.15
2022-08-08T09:44:47.708Z,45.93
2022-08-08T09:46:01.080Z,46.92
2022-08-08T09:46:57.723Z,45.14
2022-08-08T09:48:05.120Z,45.14
2022-08-08T09:48:50.105Z,43.94
2022-08-08T09:49:49.531Z,45.06
2022-08-08T09:50:50.355Z,45.95
2022-08-08T09:52:06.215Z,45.33
2022-08-08T09:52:55.463Z,45.06
2022-08-08T09:53:59.111Z,45.23
2022-08-08T09:54:47.450Z,46.53
2022-08-08T09:56:04.492Z,44.74
2022-08-08T09:56:47.413Z,43.84
2022-08-08T09:57:55.728Z,44.02
2022-08-08T09:58:47.407Z,44.12
2022-08-08T10:00:01.764Z,44.02
2022-08-08T10:00:53.689Z,43.72
2022-08-08T10:01:59.855Z,43.52
2022-08-08T10:02:47.256Z,43.23
2022-08-08T10:03:55.784Z,43.82
2022-08-08T10:04:47.782Z,43.10
2022-08-08T10:05:47.275Z,43.42
2022-08-08T10:06:47.162Z,43.20
2022-08-08T10:07:47.141Z,43.30
2022-08-08T10:08:48.084Z,44.37
2022-08-08T10:09:58.845Z,43.78
2022-08-08T10:10:51.374Z,44.37
2022-08-08T10:12:28.418Z,43.36
2022-08-08T10:12:54.407Z,43.36
2022-08-08T10:13:47.585Z,42.45
2022-08-08T10:14:47.020Z,44.33
2022-08-08T10:15:59.071Z,43.54
2022-08-08T10:16:46.990Z,42.85
2022-08-08T10:18:04.027Z,42.77
2022-08-08T10:18:46.953Z,43.26
2022-08-08T10:19:58.096Z,42.47
2022-08-08T10:20:57.495Z,42.99
2022-08-08T10:21:51.014Z,43.88
2022-08-08T10:22:55.019Z,43.76
2022-08-08T10:23:55.494Z,43.68
2022-08-08T10:24:46.793Z,43.08
2022-08-08T10:25:57.135Z,43.28
2022-08-08T10:26:57.146Z,43.80
2022-08-08T10:27:46.664Z,43.50
2022-08-08T10:28:53.735Z,44.12
2022-08-08T10:29:59.158Z,44.02
2022-08-08T10:31:00.179Z,44.14
2022-08-08T10:31:47.826Z,44.24
2022-08-08T10:32:48.805Z,44.14
2022-08-08T10:34:18.778Z,44.44
2022-08-08T10:34:46.765Z,44.64
2022-08-08T10:36:07.258Z,44.34
2022-08-08T10:36:46.517Z,43.94
2022-08-08T10:37:46.424Z,44.71
2022-08-08T10:38:46.469Z,44.02
2022-08-08T10:39:54.767Z,44.44
2022-08-08T10:40:46.353Z,43.84
2022-08-08T10:42:13.049Z,44.42
2022-08-08T10:42:46.302Z,43.52
2022-08-08T10:43:46.290Z,43.80
2022-08-08T10:44:49.445Z,43.70
2022-08-08T10:45:57.329Z,42.80
2022-08-08T10:46:46.314Z,43.90
2022-08-08T10:47:48.662Z,43.68
2022-08-08T10:48:57.267Z,44.25
2022-08-08T10:50:01.223Z,43.06
2022-08-08T10:50:46.118Z,42.65
2022-08-08T10:51:50.873Z,43.34
2022-08-08T10:52:46.071Z,42.63
2022-08-08T10:53:57.514Z,42.92
2022-08-08T10:54:46.408Z,43.82
2022-08-08T10:55:46.637Z,43.10
2022-08-08T10:56:45.980Z,42.90
2022-08-08T10:57:50.869Z,43.87
2022-08-08T10:58:54.568Z,43.40
2022-08-08T10:59:47.605Z,43.10
2022-08-08T11:00:53.221Z,43.08
2022-08-08T11:01:45.979Z,42.58
2022-08-08T11:02:45.837Z,41.77
2022-08-08T11:04:00.550Z,41.38
2022-08-08T11:04:53.639Z,42.07
2022-08-08T11:05:45.985Z,41.30
2022-08-08T11:06:47.400Z,42.38
2022-08-08T11:08:36.635Z,41.39
2022-08-08T11:08:53.158Z,42.01
2022-08-08T11:09:45.700Z,41.99
2022-08-08T11:10:45.665Z,42.01
2022-08-08T11:12:05.321Z,42.43
2022-08-08T11:12:45.616Z,42.05
2022-08-08T11:13:51.908Z,42.45
2022-08-08T11:14:45.561Z,42.25
2022-08-08T11:15:58.855Z,42.85
2022-08-08T11:16:46.631Z,42.57
2022-08-08T11:18:00.120Z,42.17
2022-08-08T11:18:45.491Z,42.69
2022-08-08T11:19:46.653Z,43.28
2022-08-08T11:20:52.427Z,43.78
2022-08-08T11:21:55.467Z,43.48
2022-08-08T11:22:45.431Z,43.36
2022-08-08T11:23:45.367Z,43.44
2022-08-08T11:24:45.606Z,43.74
2022-08-08T11:25:55.314Z,42.85
2022-08-08T11:26:56.402Z,42.65
2022-08-08T11:27:46.763Z,43.64
2022-08-08T11:28:45.247Z,42.15
2022-08-08T11:29:58.261Z,42.15
2022-08-08T11:30:51.996Z,42.65
2022-08-08T11:31:48.181Z,43.93
2022-08-08T11:32:47.269Z,42.74
2022-08-08T11:33:52.726Z,42.57
2022-08-08T11:35:09.594Z,42.55
2022-08-08T11:35:45.092Z,42.47
2022-08-08T11:36:45.066Z,42.55
2022-08-08T11:38:36.753Z,42.85
2022-08-08T11:38:54.307Z,42.85
2022-08-08T11:39:57.153Z,43.64
2022-08-08T11:40:48.528Z,42.52
2022-08-08T11:41:44.987Z,42.52
2022-08-08T11:42:44.948Z,42.60
2022-08-08T11:43:44.966Z,42.41
2022-08-08T11:44:44.932Z,42.31
2022-08-08T11:46:08.971Z,42.50
2022-08-08T11:46:44.844Z,42.31
2022-08-08T11:48:02.914Z,42.41
2022-08-08T11:48:46.939Z,44.09
2022-08-08T11:49:45.290Z,42.60
2022-08-08T11:50:44.752Z,43.00
2022-08-08T11:51:49.829Z,42.01
2022-08-08T11:52:47.316Z,42.01
2022-08-08T11:53:55.307Z,42.60
2022-08-08T11:54:46.693Z,43.20
2022-08-08T11:55:44.637Z,42.71
2022-08-08T11:56:44.697Z,42.41
2022-08-08T11:57:45.231Z,42.60
2022-08-08T11:58:44.572Z,42.72
2022-08-08T12:00:01.704Z,42.63
2022-08-08T12:00:44.531Z,42.71
2022-08-08T12:01:44.520Z,42.41
2022-08-08T12:02:45.360Z,42.50
2022-08-08T12:03:44.519Z,42.43
2022-08-08T12:04:44.446Z,42.41
2022-08-08T12:05:44.469Z,42.43
2022-08-08T12:06:44.764Z,43.02
2022-08-08T12:07:44.455Z,43.34
2022-08-08T12:08:44.348Z,42.57
2022-08-08T12:09:59.751Z,43.46
2022-08-08T12:10:47.715Z,42.66
2022-08-08T12:11:44.277Z,43.64
2022-08-08T12:12:46.015Z,43.84
2022-08-08T12:14:02.960Z,43.34
2022-08-08T12:14:44.203Z,43.22
2022-08-08T12:15:47.092Z,42.43
2022-08-08T12:16:47.288Z,42.60
2022-08-08T12:17:44.388Z,43.70
2022-08-08T12:18:44.121Z,43.60
2022-08-08T12:19:51.712Z,42.49
2022-08-08T12:20:44.141Z,41.69
2022-08-08T12:21:59.384Z,42.19
2022-08-08T12:22:45.687Z,41.22
2022-08-08T12:23:58.454Z,42.21
2022-08-08T12:24:51.343Z,41.63
2022-08-08T12:25:44.849Z,42.45
2022-08-08T12:26:43.989Z,42.43
2022-08-08T12:27:45.153Z,42.23
2022-08-08T12:28:45.467Z,42.52
2022-08-08T12:29:45.081Z,42.13
2022-08-08T12:30:49.932Z,42.80
2022-08-08T12:31:53.172Z,42.21
2022-08-08T12:32:43.794Z,42.31
2022-08-08T12:34:01.972Z,42.60
2022-08-08T12:34:43.745Z,42.71
2022-08-08T12:35:52.573Z,42.41
2022-08-08T12:36:46.450Z,42.01
2022-08-08T12:37:48.157Z,42.49
2022-08-08T12:38:43.652Z,41.79
2022-08-08T12:40:01.106Z,40.80
2022-08-08T12:40:54.245Z,41.91
2022-08-08T12:41:57.222Z,41.91
2022-08-08T12:42:47.489Z,41.49
2022-08-08T12:43:59.890Z,42.29
2022-08-08T12:44:43.518Z,41.38
2022-08-08T12:45:59.450Z,42.05
2022-08-08T12:46:43.468Z,40.66
2022-08-08T12:48:04.735Z,40.78
2022-08-08T12:48:59.752Z,40.68
2022-08-08T12:49:45.505Z,40.78
2022-08-08T12:50:46.528Z,40.48
2022-08-08T12:51:49.774Z,40.58